sensor_id;sensor_type;location;lat;lon;timestamp;temperature;humidity
14473;DHT22;7322;50.872;4.386;2023-02-26T00:02:16;18.60;99.90
14473;DHT22;7322;50.872;4.386;2023-02-26T00:04:49;18.60;99.90
14473;DHT22;7322;50.872;4.386;2023-02-26T00:07:21;18.60;99.90
14473;DHT22;7322;50.872;4.386;2023-02-26T00:09:49;18.60;99.90
14473;DHT22;7322;50.872;4.386;2023-02-26T00:12:19;18.60;99.90
14473;DHT22;7322;50.872;4.386;2023-02-26T00:14:47;18.60;99.90
14473;DHT22;7322;50.872;4.386;2023-02-26T00:17:33;18.60;99.90
14473;DHT22;7322;50.872;4.386;2023-02-26T00:20:13;18.60;99.90
14473;DHT22;7322;50.872;4.386;2023-02-26T00:22:42;18.60;99.90
14473;DHT22;7322;50.872;4.386;2023-02-26T00:25:11;18.60;99.90
14473;DHT22;7322;50.872;4.386;2023-02-26T00:27:40;18.50;99.90
14473;DHT22;7322;50.872;4.386;2023-02-26T00:30:18;18.60;99.90
14473;DHT22;7322;50.872;4.386;2023-02-26T00:32:46;18.60;99.90
14473;DHT22;7322;50.872;4.386;2023-02-26T00:35:15;18.50;99.90
14473;DHT22;7322;50.872;4.386;2023-02-26T00:37:56;18.50;99.90
14473;DHT22;7322;50.872;4.386;2023-02-26T00:40:43;18.60;99.90
14473;DHT22;7322;50.872;4.386;2023-02-26T00:43:24;18.60;99.90
14473;DHT22;7322;50.872;4.386;2023-02-26T00:45:55;18.50;99.90
14473;DHT22;7322;50.872;4.386;2023-02-26T00:48:46;18.50;99.90
14473;DHT22;7322;50.872;4.386;2023-02-26T00:51:29;18.60;99.90
14473;DHT22;7322;50.872;4.386;2023-02-26T00:54:04;18.50;99.90
14473;DHT22;7322;50.872;4.386;2023-02-26T00:56:35;18.50;99.90
14473;DHT22;7322;50.872;4.386;2023-02-26T00:59:09;18.50;99.90
14473;DHT22;7322;50.872;4.386;2023-02-26T01:01:37;18.50;99.90
14473;DHT22;7322;50.872;4.386;2023-02-26T01:04:06;18.50;99.90
14473;DHT22;7322;50.872;4.386;2023-02-26T01:06:34;18.50;99.90
14473;DHT22;7322;50.872;4.386;2023-02-26T01:09:09;18.50;99.90
14473;DHT22;7322;50.872;4.386;2023-02-26T01:11:40;18.50;99.90
14473;DHT22;7322;50.872;4.386;2023-02-26T01:14:10;18.50;99.90
14473;DHT22;7322;50.872;4.386;2023-02-26T01:16:46;18.50;99.90
14473;DHT22;7322;50.872;4.386;2023-02-26T01:19:23;18.50;99.90
14473;DHT22;7322;50.872;4.386;2023-02-26T01:21:59;18.40;99.90
14473;DHT22;7322;50.872;4.386;2023-02-26T01:24:30;18.40;99.90
14473;DHT22;7322;50.872;4.386;2023-02-26T01:27:02;18.40;99.90
14473;DHT22;7322;50.872;4.386;2023-02-26T01:29:37;18.50;99.90
14473;DHT22;7322;50.872;4.386;2023-02-26T01:32:09;18.50;99.90
14473;DHT22;7322;50.872;4.386;2023-02-26T01:34:46;18.40;99.90
14473;DHT22;7322;50.872;4.386;2023-02-26T01:37:28;18.40;99.90
14473;DHT22;7322;50.872;4.386;2023-02-26T01:40:19;18.50;99.90
14473;DHT22;7322;50.872;4.386;2023-02-26T01:43:13;18.50;99.90
14473;DHT22;7322;50.872;4.386;2023-02-26T01:45:56;18.40;99.90
14473;DHT22;7322;50.872;4.386;2023-02-26T01:48:35;18.40;99.90
14473;DHT22;7322;50.872;4.386;2023-02-26T01:51:18;18.40;99.90
14473;DHT22;7322;50.872;4.386;2023-02-26T01:54:37;18.40;99.90
14473;DHT22;7322;50.872;4.386;2023-02-26T01:57:13;18.40;99.90
14473;DHT22;7322;50.872;4.386;2023-02-26T01:59:52;18.40;99.90
14473;DHT22;7322;50.872;4.386;2023-02-26T02:02:22;18.40;99.90
14473;DHT22;7322;50.872;4.386;2023-02-26T02:04:51;18.40;99.90
14473;DHT22;7322;50.872;4.386;2023-02-26T02:07:28;18.40;99.90
14473;DHT22;7322;50.872;4.386;2023-02-26T02:10:06;18.40;99.90
14473;DHT22;7322;50.872;4.386;2023-02-26T02:12:38;18.40;99.90
14473;DHT22;7322;50.872;4.386;2023-02-26T02:15:16;18.40;99.90
14473;DHT22;7322;50.872;4.386;2023-02-26T02:17:50;18.40;99.90
14473;DHT22;7322;50.872;4.386;2023-02-26T02:23:31;18.40;99.90
14473;DHT22;7322;50.872;4.386;2023-02-26T02:26:13;18.30;99.90
14473;DHT22;7322;50.872;4.386;2023-02-26T02:31:52;18.40;99.90
14473;DHT22;7322;50.872;4.386;2023-02-26T02:34:24;18.40;99.90
14473;DHT22;7322;50.872;4.386;2023-02-26T02:36:58;18.30;99.90
14473;DHT22;7322;50.872;4.386;2023-02-26T02:39:31;18.30;99.90
14473;DHT22;7322;50.872;4.386;2023-02-26T02:42:03;18.30;99.90
14473;DHT22;7322;50.872;4.386;2023-02-26T02:44:37;18.30;99.90
14473;DHT22;7322;50.872;4.386;2023-02-26T02:47:14;18.40;99.90
14473;DHT22;7322;50.872;4.386;2023-02-26T02:49:51;18.30;99.90
14473;DHT22;7322;50.872;4.386;2023-02-26T02:52:24;18.30;99.90
14473;DHT22;7322;50.872;4.386;2023-02-26T02:54:56;18.30;99.90
14473;DHT22;7322;50.872;4.386;2023-02-26T02:57:37;18.30;99.90
14473;DHT22;7322;50.872;4.386;2023-02-26T03:00:23;18.40;99.90
14473;DHT22;7322;50.872;4.386;2023-02-26T03:02:56;18.30;99.90
14473;DHT22;7322;50.872;4.386;2023-02-26T03:05:37;18.30;99.90
14473;DHT22;7322;50.872;4.386;2023-02-26T03:08:09;18.30;99.90
14473;DHT22;7322;50.872;4.386;2023-02-26T03:10:36;18.30;99.90
14473;DHT22;7322;50.872;4.386;2023-02-26T03:13:05;18.30;99.90
14473;DHT22;7322;50.872;4.386;2023-02-26T03:16:13;18.30;99.90
14473;DHT22;7322;50.872;4.386;2023-02-26T03:18:54;18.30;99.90
14473;DHT22;7322;50.872;4.386;2023-02-26T03:21:45;18.30;99.90
14473;DHT22;7322;50.872;4.386;2023-02-26T03:24:27;18.30;99.90
14473;DHT22;7322;50.872;4.386;2023-02-26T03:27:19;18.30;99.90
14473;DHT22;7322;50.872;4.386;2023-02-26T03:29:58;18.30;99.90
14473;DHT22;7322;50.872;4.386;2023-02-26T03:32:31;18.20;99.90
14473;DHT22;7322;50.872;4.386;2023-02-26T03:35:05;18.30;99.90
14473;DHT22;7322;50.872;4.386;2023-02-26T03:37:43;18.30;99.90
14473;DHT22;7322;50.872;4.386;2023-02-26T03:40:23;18.30;99.90
14473;DHT22;7322;50.872;4.386;2023-02-26T03:42:55;18.30;99.90
14473;DHT22;7322;50.872;4.386;2023-02-26T03:45:33;18.30;99.90
14473;DHT22;7322;50.872;4.386;2023-02-26T03:48:05;18.20;99.90
14473;DHT22;7322;50.872;4.386;2023-02-26T03:50:37;18.20;99.90
14473;DHT22;7322;50.872;4.386;2023-02-26T03:53:18;18.20;99.90
14473;DHT22;7322;50.872;4.386;2023-02-26T03:55:53;18.20;99.90
14473;DHT22;7322;50.872;4.386;2023-02-26T03:58:22;18.20;99.90
14473;DHT22;7322;50.872;4.386;2023-02-26T04:01:10;18.20;99.90
14473;DHT22;7322;50.872;4.386;2023-02-26T04:03:44;18.30;99.90
14473;DHT22;7322;50.872;4.386;2023-02-26T04:06:14;18.20;99.90
14473;DHT22;7322;50.872;4.386;2023-02-26T04:08:55;18.20;99.90
14473;DHT22;7322;50.872;4.386;2023-02-26T04:11:23;18.20;99.90
14473;DHT22;7322;50.872;4.386;2023-02-26T04:13:52;18.20;99.90
14473;DHT22;7322;50.872;4.386;2023-02-26T04:16:25;18.20;99.90
14473;DHT22;7322;50.872;4.386;2023-02-26T04:18:52;18.20;99.90
14473;DHT22;7322;50.872;4.386;2023-02-26T04:21:23;18.20;99.90
14473;DHT22;7322;50.872;4.386;2023-02-26T04:23:52;18.20;99.90
14473;DHT22;7322;50.872;4.386;2023-02-26T04:26:21;18.20;99.90
14473;DHT22;7322;50.872;4.386;2023-02-26T04:28:56;18.20;99.90
14473;DHT22;7322;50.872;4.386;2023-02-26T04:31:23;18.20;99.90
14473;DHT22;7322;50.872;4.386;2023-02-26T04:33:50;18.20;99.90
14473;DHT22;7322;50.872;4.386;2023-02-26T04:36:17;18.20;99.90
14473;DHT22;7322;50.872;4.386;2023-02-26T04:38:46;18.10;99.90
14473;DHT22;7322;50.872;4.386;2023-02-26T04:41:22;18.20;99.90
14473;DHT22;7322;50.872;4.386;2023-02-26T04:43:52;18.20;99.90
14473;DHT22;7322;50.872;4.386;2023-02-26T04:46:48;18.20;99.90
14473;DHT22;7322;50.872;4.386;2023-02-26T04:49:17;18.20;99.90
14473;DHT22;7322;50.872;4.386;2023-02-26T04:51:46;18.20;99.90
14473;DHT22;7322;50.872;4.386;2023-02-26T04:54:23;18.20;99.90
14473;DHT22;7322;50.872;4.386;2023-02-26T04:56:52;18.10;99.90
14473;DHT22;7322;50.872;4.386;2023-02-26T04:59:28;18.10;99.90
14473;DHT22;7322;50.872;4.386;2023-02-26T05:02:03;18.10;99.90
14473;DHT22;7322;50.872;4.386;2023-02-26T05:04:51;18.10;99.90
14473;DHT22;7322;50.872;4.386;2023-02-26T05:07:22;18.10;99.90
14473;DHT22;7322;50.872;4.386;2023-02-26T05:09:50;18.10;99.90
14473;DHT22;7322;50.872;4.386;2023-02-26T05:12:18;18.10;99.90
14473;DHT22;7322;50.872;4.386;2023-02-26T05:14:48;18.10;99.90
14473;DHT22;7322;50.872;4.386;2023-02-26T05:17:18;18.10;99.90
14473;DHT22;7322;50.872;4.386;2023-02-26T05:19:47;18.10;99.90
14473;DHT22;7322;50.872;4.386;2023-02-26T05:22:15;18.10;99.90
14473;DHT22;7322;50.872;4.386;2023-02-26T05:24:56;18.10;99.90
14473;DHT22;7322;50.872;4.386;2023-02-26T05:27:49;18.10;99.90
14473;DHT22;7322;50.872;4.386;2023-02-26T05:30:17;18.10;99.90
14473;DHT22;7322;50.872;4.386;2023-02-26T05:32:45;18.10;99.90
14473;DHT22;7322;50.872;4.386;2023-02-26T05:35:20;18.10;99.90
14473;DHT22;7322;50.872;4.386;2023-02-26T05:37:54;18.10;99.90
14473;DHT22;7322;50.872;4.386;2023-02-26T05:40:23;18.10;99.90
14473;DHT22;7322;50.872;4.386;2023-02-26T05:42:52;18.10;99.90
14473;DHT22;7322;50.872;4.386;2023-02-26T05:45:19;18.10;99.90
14473;DHT22;7322;50.872;4.386;2023-02-26T05:47:47;18.10;99.90
14473;DHT22;7322;50.872;4.386;2023-02-26T05:50:16;18.10;99.90
14473;DHT22;7322;50.872;4.386;2023-02-26T05:52:44;18.10;99.90
14473;DHT22;7322;50.872;4.386;2023-02-26T05:55:13;18.10;99.90
14473;DHT22;7322;50.872;4.386;2023-02-26T05:57:42;18.10;99.90
14473;DHT22;7322;50.872;4.386;2023-02-26T06:00:10;18.10;99.90
14473;DHT22;7322;50.872;4.386;2023-02-26T06:02:40;18.10;99.90
14473;DHT22;7322;50.872;4.386;2023-02-26T06:05:08;18.10;99.90
14473;DHT22;7322;50.872;4.386;2023-02-26T06:07:36;18.10;99.90
14473;DHT22;7322;50.872;4.386;2023-02-26T06:10:03;18.00;99.90
14473;DHT22;7322;50.872;4.386;2023-02-26T06:12:37;18.10;99.90
14473;DHT22;7322;50.872;4.386;2023-02-26T06:15:08;18.10;99.90
14473;DHT22;7322;50.872;4.386;2023-02-26T06:17:37;18.00;99.90
14473;DHT22;7322;50.872;4.386;2023-02-26T06:20:18;18.00;99.90
14473;DHT22;7322;50.872;4.386;2023-02-26T06:22:45;18.00;99.90
14473;DHT22;7322;50.872;4.386;2023-02-26T06:25:22;18.00;99.90
14473;DHT22;7322;50.872;4.386;2023-02-26T06:27:58;18.00;99.90
14473;DHT22;7322;50.872;4.386;2023-02-26T06:30:40;18.00;99.90
14473;DHT22;7322;50.872;4.386;2023-02-26T06:33:13;18.00;99.90
14473;DHT22;7322;50.872;4.386;2023-02-26T06:35:51;18.00;99.90
14473;DHT22;7322;50.872;4.386;2023-02-26T06:38:22;18.00;99.90
14473;DHT22;7322;50.872;4.386;2023-02-26T06:41:17;18.00;99.90
14473;DHT22;7322;50.872;4.386;2023-02-26T06:43:51;18.00;99.90
14473;DHT22;7322;50.872;4.386;2023-02-26T06:46:31;18.00;99.90
14473;DHT22;7322;50.872;4.386;2023-02-26T06:49:00;18.00;99.90
14473;DHT22;7322;50.872;4.386;2023-02-26T06:51:43;18.00;99.90
14473;DHT22;7322;50.872;4.386;2023-02-26T06:54:11;18.00;99.90
14473;DHT22;7322;50.872;4.386;2023-02-26T06:56:38;18.00;99.90
14473;DHT22;7322;50.872;4.386;2023-02-26T06:59:10;18.00;99.90
14473;DHT22;7322;50.872;4.386;2023-02-26T07:01:49;18.10;99.90
14473;DHT22;7322;50.872;4.386;2023-02-26T07:04:16;18.20;99.90
14473;DHT22;7322;50.872;4.386;2023-02-26T07:06:45;18.30;99.90
14473;DHT22;7322;50.872;4.386;2023-02-26T07:09:22;18.40;99.90
14473;DHT22;7322;50.872;4.386;2023-02-26T07:12:00;18.60;99.90
14473;DHT22;7322;50.872;4.386;2023-02-26T07:14:37;18.70;99.90
14473;DHT22;7322;50.872;4.386;2023-02-26T07:17:33;18.90;99.90
14473;DHT22;7322;50.872;4.386;2023-02-26T07:20:06;19.10;99.90
14473;DHT22;7322;50.872;4.386;2023-02-26T07:22:46;19.20;99.90
14473;DHT22;7322;50.872;4.386;2023-02-26T07:25:38;19.40;99.90
14473;DHT22;7322;50.872;4.386;2023-02-26T07:28:24;19.50;99.90
14473;DHT22;7322;50.872;4.386;2023-02-26T07:30:53;19.60;99.90
14473;DHT22;7322;50.872;4.386;2023-02-26T07:33:22;19.60;99.90
14473;DHT22;7322;50.872;4.386;2023-02-26T07:35:52;19.70;99.90
14473;DHT22;7322;50.872;4.386;2023-02-26T07:38:19;19.70;99.90
14473;DHT22;7322;50.872;4.386;2023-02-26T07:40:46;19.80;99.90
14473;DHT22;7322;50.872;4.386;2023-02-26T07:43:18;19.80;99.90
14473;DHT22;7322;50.872;4.386;2023-02-26T07:45:52;19.80;99.90
14473;DHT22;7322;50.872;4.386;2023-02-26T07:48:28;19.80;99.90
14473;DHT22;7322;50.872;4.386;2023-02-26T07:50:55;19.80;99.90
14473;DHT22;7322;50.872;4.386;2023-02-26T07:53:22;19.80;99.90
14473;DHT22;7322;50.872;4.386;2023-02-26T07:55:50;19.80;99.90
14473;DHT22;7322;50.872;4.386;2023-02-26T07:58:17;19.70;99.90
14473;DHT22;7322;50.872;4.386;2023-02-26T08:00:46;19.70;99.90
14473;DHT22;7322;50.872;4.386;2023-02-26T08:03:13;19.70;99.90
14473;DHT22;7322;50.872;4.386;2023-02-26T08:05:42;19.60;99.90
14473;DHT22;7322;50.872;4.386;2023-02-26T08:08:10;19.60;99.90
14473;DHT22;7322;50.872;4.386;2023-02-26T08:10:38;19.60;99.90
14473;DHT22;7322;50.872;4.386;2023-02-26T08:13:08;19.60;99.90
14473;DHT22;7322;50.872;4.386;2023-02-26T08:15:35;19.60;99.90
14473;DHT22;7322;50.872;4.386;2023-02-26T08:18:02;19.50;99.90
14473;DHT22;7322;50.872;4.386;2023-02-26T08:20:29;19.50;99.90
14473;DHT22;7322;50.872;4.386;2023-02-26T08:22:58;19.50;99.90
14473;DHT22;7322;50.872;4.386;2023-02-26T08:25:26;19.50;99.90
14473;DHT22;7322;50.872;4.386;2023-02-26T08:27:54;19.50;99.90
14473;DHT22;7322;50.872;4.386;2023-02-26T08:30:24;19.40;99.90
14473;DHT22;7322;50.872;4.386;2023-02-26T08:32:51;19.40;99.90
14473;DHT22;7322;50.872;4.386;2023-02-26T08:35:19;19.40;99.90
14473;DHT22;7322;50.872;4.386;2023-02-26T08:37:46;19.40;99.90
14473;DHT22;7322;50.872;4.386;2023-02-26T08:40:15;19.40;99.90
14473;DHT22;7322;50.872;4.386;2023-02-26T08:42:43;19.40;99.90
14473;DHT22;7322;50.872;4.386;2023-02-26T08:45:10;19.30;99.90
14473;DHT22;7322;50.872;4.386;2023-02-26T08:47:37;19.30;99.90
14473;DHT22;7322;50.872;4.386;2023-02-26T08:50:06;19.30;99.90
14473;DHT22;7322;50.872;4.386;2023-02-26T08:52:33;19.30;99.90
14473;DHT22;7322;50.872;4.386;2023-02-26T08:55:00;19.30;99.90
14473;DHT22;7322;50.872;4.386;2023-02-26T08:57:28;19.30;99.90
14473;DHT22;7322;50.872;4.386;2023-02-26T08:59:55;19.30;99.90
14473;DHT22;7322;50.872;4.386;2023-02-26T09:02:23;19.30;99.90
14473;DHT22;7322;50.872;4.386;2023-02-26T09:04:51;19.30;99.90
14473;DHT22;7322;50.872;4.386;2023-02-26T09:07:18;19.30;99.90
14473;DHT22;7322;50.872;4.386;2023-02-26T09:09:45;19.30;99.90
14473;DHT22;7322;50.872;4.386;2023-02-26T09:12:14;19.30;99.90
14473;DHT22;7322;50.872;4.386;2023-02-26T09:14:43;19.40;99.90
14473;DHT22;7322;50.872;4.386;2023-02-26T09:17:10;19.30;99.90
14473;DHT22;7322;50.872;4.386;2023-02-26T09:19:37;19.40;99.90
14473;DHT22;7322;50.872;4.386;2023-02-26T09:22:04;19.30;99.90
14473;DHT22;7322;50.872;4.386;2023-02-26T09:24:31;19.40;99.90
14473;DHT22;7322;50.872;4.386;2023-02-26T09:27:01;19.40;99.90
14473;DHT22;7322;50.872;4.386;2023-02-26T09:29:28;19.40;99.90
14473;DHT22;7322;50.872;4.386;2023-02-26T09:31:56;19.40;99.90
14473;DHT22;7322;50.872;4.386;2023-02-26T09:34:23;19.40;99.90
14473;DHT22;7322;50.872;4.386;2023-02-26T09:36:50;19.40;99.90
14473;DHT22;7322;50.872;4.386;2023-02-26T09:39:18;19.40;99.90
14473;DHT22;7322;50.872;4.386;2023-02-26T09:41:47;19.40;99.90
14473;DHT22;7322;50.872;4.386;2023-02-26T09:44:19;19.40;99.90
14473;DHT22;7322;50.872;4.386;2023-02-26T09:46:52;19.40;99.90
14473;DHT22;7322;50.872;4.386;2023-02-26T09:49:46;19.40;99.90
14473;DHT22;7322;50.872;4.386;2023-02-26T09:52:21;19.40;99.90
14473;DHT22;7322;50.872;4.386;2023-02-26T09:54:51;19.40;99.90
14473;DHT22;7322;50.872;4.386;2023-02-26T09:57:27;19.40;99.90
14473;DHT22;7322;50.872;4.386;2023-02-26T09:59:55;19.40;99.90
14473;DHT22;7322;50.872;4.386;2023-02-26T10:02:31;19.40;99.90
14473;DHT22;7322;50.872;4.386;2023-02-26T10:05:16;19.50;99.90
14473;DHT22;7322;50.872;4.386;2023-02-26T10:07:56;19.50;99.90
14473;DHT22;7322;50.872;4.386;2023-02-26T10:10:48;19.60;99.90
14473;DHT22;7322;50.872;4.386;2023-02-26T10:13:30;19.70;99.90
14473;DHT22;7322;50.872;4.386;2023-02-26T10:16:12;19.70;99.90
14473;DHT22;7322;50.872;4.386;2023-02-26T10:18:50;19.80;99.90
14473;DHT22;7322;50.872;4.386;2023-02-26T10:21:29;19.80;99.90
14473;DHT22;7322;50.872;4.386;2023-02-26T10:24:18;19.90;99.90
14473;DHT22;7322;50.872;4.386;2023-02-26T10:26:53;20.00;99.90
14473;DHT22;7322;50.872;4.386;2023-02-26T10:29:34;20.00;99.90
14473;DHT22;7322;50.872;4.386;2023-02-26T10:32:25;20.10;99.90
14473;DHT22;7322;50.872;4.386;2023-02-26T10:34:55;20.20;99.90
14473;DHT22;7322;50.872;4.386;2023-02-26T10:37:43;20.20;99.90
14473;DHT22;7322;50.872;4.386;2023-02-26T10:40:16;20.30;99.90
14473;DHT22;7322;50.872;4.386;2023-02-26T10:42:47;20.30;99.90
14473;DHT22;7322;50.872;4.386;2023-02-26T10:45:36;20.40;99.90
14473;DHT22;7322;50.872;4.386;2023-02-26T10:48:24;20.40;99.90
14473;DHT22;7322;50.872;4.386;2023-02-26T10:51:09;20.50;99.90
14473;DHT22;7322;50.872;4.386;2023-02-26T10:53:51;20.50;99.90
14473;DHT22;7322;50.872;4.386;2023-02-26T10:56:25;20.50;99.90
14473;DHT22;7322;50.872;4.386;2023-02-26T10:58:55;20.60;99.90
14473;DHT22;7322;50.872;4.386;2023-02-26T11:01:24;20.60;99.90
14473;DHT22;7322;50.872;4.386;2023-02-26T11:03:55;20.60;99.90
14473;DHT22;7322;50.872;4.386;2023-02-26T11:06:26;20.60;99.90
14473;DHT22;7322;50.872;4.386;2023-02-26T11:08:57;20.60;99.90
14473;DHT22;7322;50.872;4.386;2023-02-26T11:11:45;20.60;99.90
14473;DHT22;7322;50.872;4.386;2023-02-26T11:14:13;20.60;99.90
14473;DHT22;7322;50.872;4.386;2023-02-26T11:16:47;20.50;99.90
14473;DHT22;7322;50.872;4.386;2023-02-26T11:19:15;20.60;99.90
14473;DHT22;7322;50.872;4.386;2023-02-26T11:21:44;20.50;99.90
14473;DHT22;7322;50.872;4.386;2023-02-26T11:24:17;20.50;99.90
14473;DHT22;7322;50.872;4.386;2023-02-26T11:26:48;20.60;99.90
14473;DHT22;7322;50.872;4.386;2023-02-26T11:29:19;20.50;99.90
14473;DHT22;7322;50.872;4.386;2023-02-26T11:31:47;20.60;99.90
14473;DHT22;7322;50.872;4.386;2023-02-26T11:34:15;20.50;99.90
14473;DHT22;7322;50.872;4.386;2023-02-26T11:36:44;20.60;99.90
14473;DHT22;7322;50.872;4.386;2023-02-26T11:39:16;20.60;99.90
14473;DHT22;7322;50.872;4.386;2023-02-26T11:41:47;20.60;99.90
14473;DHT22;7322;50.872;4.386;2023-02-26T11:44:17;20.60;99.90
14473;DHT22;7322;50.872;4.386;2023-02-26T11:46:49;20.60;99.90
14473;DHT22;7322;50.872;4.386;2023-02-26T11:49:20;20.60;99.90
14473;DHT22;7322;50.872;4.386;2023-02-26T11:52:02;20.70;99.90
14473;DHT22;7322;50.872;4.386;2023-02-26T11:54:35;20.70;99.90
14473;DHT22;7322;50.872;4.386;2023-02-26T11:57:06;20.70;99.90
14473;DHT22;7322;50.872;4.386;2023-02-26T11:59:39;20.70;99.90
14473;DHT22;7322;50.872;4.386;2023-02-26T12:02:11;20.70;99.90
14473;DHT22;7322;50.872;4.386;2023-02-26T12:04:39;20.70;99.90
14473;DHT22;7322;50.872;4.386;2023-02-26T12:07:13;20.80;99.90
14473;DHT22;7322;50.872;4.386;2023-02-26T12:09:46;20.80;99.90
14473;DHT22;7322;50.872;4.386;2023-02-26T12:12:39;20.80;99.90
14473;DHT22;7322;50.872;4.386;2023-02-26T12:15:24;20.80;99.90
14473;DHT22;7322;50.872;4.386;2023-02-26T12:18:19;20.70;99.90
14473;DHT22;7322;50.872;4.386;2023-02-26T12:20:57;20.70;99.90
14473;DHT22;7322;50.872;4.386;2023-02-26T12:26:49;20.70;99.90
14473;DHT22;7322;50.872;4.386;2023-02-26T12:29:34;20.60;99.90
14473;DHT22;7322;50.872;4.386;2023-02-26T12:38:19;20.50;99.90
14473;DHT22;7322;50.872;4.386;2023-02-26T12:41:19;20.50;99.90
14473;DHT22;7322;50.872;4.386;2023-02-26T12:43:52;20.40;99.90
14473;DHT22;7322;50.872;4.386;2023-02-26T12:46:42;20.40;99.90
14473;DHT22;7322;50.872;4.386;2023-02-26T12:49:38;20.40;99.90
14473;DHT22;7322;50.872;4.386;2023-02-26T12:52:29;20.40;99.90
14473;DHT22;7322;50.872;4.386;2023-02-26T12:55:17;20.30;99.90
14473;DHT22;7322;50.872;4.386;2023-02-26T12:58:08;20.30;99.90
14473;DHT22;7322;50.872;4.386;2023-02-26T13:01:02;20.30;99.90
14473;DHT22;7322;50.872;4.386;2023-02-26T13:06:51;20.20;99.90
14473;DHT22;7322;50.872;4.386;2023-02-26T13:09:33;20.10;99.90
14473;DHT22;7322;50.872;4.386;2023-02-26T13:12:14;20.10;99.90
14473;DHT22;7322;50.872;4.386;2023-02-26T13:14:51;20.10;99.90
14473;DHT22;7322;50.872;4.386;2023-02-26T13:17:27;20.10;99.90
14473;DHT22;7322;50.872;4.386;2023-02-26T13:20:00;20.00;99.90
14473;DHT22;7322;50.872;4.386;2023-02-26T13:22:31;20.00;99.90
14473;DHT22;7322;50.872;4.386;2023-02-26T13:25:02;20.00;99.90
14473;DHT22;7322;50.872;4.386;2023-02-26T13:27:34;19.90;99.90
14473;DHT22;7322;50.872;4.386;2023-02-26T13:30:18;19.90;99.90
14473;DHT22;7322;50.872;4.386;2023-02-26T13:32:49;20.00;99.90
14473;DHT22;7322;50.872;4.386;2023-02-26T13:35:20;19.90;99.90
14473;DHT22;7322;50.872;4.386;2023-02-26T13:37:54;19.90;99.90
14473;DHT22;7322;50.872;4.386;2023-02-26T13:40:53;19.80;99.90
14473;DHT22;7322;50.872;4.386;2023-02-26T13:43:35;19.80;99.90
14473;DHT22;7322;50.872;4.386;2023-02-26T13:46:15;19.70;99.90
14473;DHT22;7322;50.872;4.386;2023-02-26T13:48:54;19.70;99.90
14473;DHT22;7322;50.872;4.386;2023-02-26T13:51:33;19.70;99.90
14473;DHT22;7322;50.872;4.386;2023-02-26T13:54:07;19.60;99.90
14473;DHT22;7322;50.872;4.386;2023-02-26T13:56:52;19.60;99.90
14473;DHT22;7322;50.872;4.386;2023-02-26T13:59:36;19.60;99.90
14473;DHT22;7322;50.872;4.386;2023-02-26T14:08:29;19.50;99.90
14473;DHT22;7322;50.872;4.386;2023-02-26T14:11:25;19.50;99.90
14473;DHT22;7322;50.872;4.386;2023-02-26T14:14:08;19.50;99.90
14473;DHT22;7322;50.872;4.386;2023-02-26T14:16:39;19.60;99.90
14473;DHT22;7322;50.872;4.386;2023-02-26T14:19:43;19.60;99.90
14473;DHT22;7322;50.872;4.386;2023-02-26T14:22:18;19.70;99.90
14473;DHT22;7322;50.872;4.386;2023-02-26T14:24:53;19.70;99.90
14473;DHT22;7322;50.872;4.386;2023-02-26T14:27:25;19.80;99.90
14473;DHT22;7322;50.872;4.386;2023-02-26T14:30:02;19.80;99.90
14473;DHT22;7322;50.872;4.386;2023-02-26T14:32:33;19.90;99.90
14473;DHT22;7322;50.872;4.386;2023-02-26T14:35:04;20.00;99.90
14473;DHT22;7322;50.872;4.386;2023-02-26T14:37:34;20.00;99.90
14473;DHT22;7322;50.872;4.386;2023-02-26T14:40:10;20.10;99.90
14473;DHT22;7322;50.872;4.386;2023-02-26T14:42:42;20.10;99.90
14473;DHT22;7322;50.872;4.386;2023-02-26T14:45:26;20.20;99.90
14473;DHT22;7322;50.872;4.386;2023-02-26T14:47:53;20.30;99.90
14473;DHT22;7322;50.872;4.386;2023-02-26T14:50:22;20.30;99.90
14473;DHT22;7322;50.872;4.386;2023-02-26T14:53:20;20.40;99.90
14473;DHT22;7322;50.872;4.386;2023-02-26T14:55:58;20.40;99.90
14473;DHT22;7322;50.872;4.386;2023-02-26T14:58:59;20.40;99.90
14473;DHT22;7322;50.872;4.386;2023-02-26T15:01:44;20.50;99.90
14473;DHT22;7322;50.872;4.386;2023-02-26T15:10:23;20.60;99.90
14473;DHT22;7322;50.872;4.386;2023-02-26T15:13:05;20.60;99.90
14473;DHT22;7322;50.872;4.386;2023-02-26T15:15:46;20.60;99.90
14473;DHT22;7322;50.872;4.386;2023-02-26T15:18:41;20.60;99.90
14473;DHT22;7322;50.872;4.386;2023-02-26T15:21:19;20.60;99.90
14473;DHT22;7322;50.872;4.386;2023-02-26T15:23:50;20.60;99.90
14473;DHT22;7322;50.872;4.386;2023-02-26T15:26:22;20.50;99.90
14473;DHT22;7322;50.872;4.386;2023-02-26T15:28:52;20.50;99.90
14473;DHT22;7322;50.872;4.386;2023-02-26T15:31:21;20.50;99.90
14473;DHT22;7322;50.872;4.386;2023-02-26T15:33:54;20.40;99.90
14473;DHT22;7322;50.872;4.386;2023-02-26T15:36:23;20.40;99.90
14473;DHT22;7322;50.872;4.386;2023-02-26T15:38:54;20.40;99.90
14473;DHT22;7322;50.872;4.386;2023-02-26T15:41:25;20.40;99.90
14473;DHT22;7322;50.872;4.386;2023-02-26T15:43:56;20.40;99.90
14473;DHT22;7322;50.872;4.386;2023-02-26T15:46:27;20.30;99.90
14473;DHT22;7322;50.872;4.386;2023-02-26T15:48:59;20.30;99.90
14473;DHT22;7322;50.872;4.386;2023-02-26T15:51:30;20.30;99.90
14473;DHT22;7322;50.872;4.386;2023-02-26T15:53:58;20.30;99.90
14473;DHT22;7322;50.872;4.386;2023-02-26T15:56:31;20.30;99.90
14473;DHT22;7322;50.872;4.386;2023-02-26T15:59:14;20.30;99.90
14473;DHT22;7322;50.872;4.386;2023-02-26T16:01:42;20.20;99.90
14473;DHT22;7322;50.872;4.386;2023-02-26T16:04:23;20.20;99.90
14473;DHT22;7322;50.872;4.386;2023-02-26T16:06:53;20.20;99.90
14473;DHT22;7322;50.872;4.386;2023-02-26T16:09:26;20.10;99.90
14473;DHT22;7322;50.872;4.386;2023-02-26T16:11:57;20.10;99.90
14473;DHT22;7322;50.872;4.386;2023-02-26T16:14:30;20.00;99.90
14473;DHT22;7322;50.872;4.386;2023-02-26T16:17:19;20.00;99.90
14473;DHT22;7322;50.872;4.386;2023-02-26T16:19:55;20.00;99.90
14473;DHT22;7322;50.872;4.386;2023-02-26T16:25:57;19.90;99.90
14473;DHT22;7322;50.872;4.386;2023-02-26T16:28:30;19.90;99.90
14473;DHT22;7322;50.872;4.386;2023-02-26T16:31:05;19.90;99.90
14473;DHT22;7322;50.872;4.386;2023-02-26T16:33:55;19.90;99.90
14473;DHT22;7322;50.872;4.386;2023-02-26T16:36:25;19.80;99.90
14473;DHT22;7322;50.872;4.386;2023-02-26T16:38:59;19.80;99.90
14473;DHT22;7322;50.872;4.386;2023-02-26T16:41:29;19.70;99.90
14473;DHT22;7322;50.872;4.386;2023-02-26T16:43:58;19.70;99.90
14473;DHT22;7322;50.872;4.386;2023-02-26T16:46:44;19.70;99.90
14473;DHT22;7322;50.872;4.386;2023-02-26T16:49:19;19.70;99.90
14473;DHT22;7322;50.872;4.386;2023-02-26T16:51:49;19.60;99.90
14473;DHT22;7322;50.872;4.386;2023-02-26T16:54:19;19.60;99.90
14473;DHT22;7322;50.872;4.386;2023-02-26T16:56:50;19.60;99.90
14473;DHT22;7322;50.872;4.386;2023-02-26T16:59:21;19.50;99.90
14473;DHT22;7322;50.872;4.386;2023-02-26T17:01:51;19.50;99.90
14473;DHT22;7322;50.872;4.386;2023-02-26T17:04:22;19.50;99.90
14473;DHT22;7322;50.872;4.386;2023-02-26T17:06:51;19.50;99.90
14473;DHT22;7322;50.872;4.386;2023-02-26T17:09:32;19.40;99.90